createdAt,value
2018-11-23T00:02:06.137Z,54.72
2018-11-23T00:04:33.105Z,54.67
2018-11-23T00:06:59.979Z,54.57
2018-11-23T00:09:26.873Z,54.61
2018-11-23T00:11:53.799Z,53.96
2018-11-23T00:14:20.672Z,53.94
2018-11-23T00:16:47.561Z,54.02
2018-11-23T00:19:14.436Z,54.82
2018-11-23T00:21:41.332Z,54.73
2018-11-23T00:24:08.217Z,54.72
2018-11-23T00:26:35.224Z,54.46
2018-11-23T00:29:02.074Z,54.58
2018-11-23T00:31:28.993Z,54.68
2018-11-23T00:33:55.894Z,54.56
2018-11-23T00:36:22.841Z,54.93
2018-11-23T00:38:49.747Z,55.60
2018-11-23T00:41:16.627Z,55.57
2018-11-23T00:43:43.502Z,55.24
2018-11-23T00:46:10.379Z,54.73
2018-11-23T00:48:37.269Z,55.47
2018-11-23T00:51:04.209Z,55.53
2018-11-23T00:53:31.097Z,54.83
2018-11-23T00:55:57.973Z,55.38
2018-11-23T00:58:24.912Z,55.02
2018-11-23T01:00:51.813Z,55.25
2018-11-23T01:03:19.821Z,54.70
2018-11-23T01:05:46.719Z,54.69
2018-11-23T01:08:13.623Z,55.38
2018-11-23T01:10:40.572Z,55.28
2018-11-23T01:13:07.455Z,55.35
2018-11-23T01:15:34.425Z,55.34
2018-11-23T01:18:04.329Z,55.31
2018-11-23T01:20:31.288Z,54.57
2018-11-23T01:22:58.757Z,54.96
2018-11-23T01:25:26.549Z,54.88
2018-11-23T01:27:54.484Z,54.66
2018-11-23T01:30:22.784Z,55.38
2018-11-23T01:32:49.697Z,55.38
2018-11-23T01:35:16.709Z,55.37
2018-11-23T01:37:43.613Z,54.90
2018-11-23T01:40:10.568Z,54.95
2018-11-23T01:42:37.479Z,55.29
2018-11-23T01:45:04.444Z,54.56
2018-11-23T01:47:31.345Z,54.78
2018-11-23T01:49:58.223Z,55.32
2018-11-23T01:52:25.187Z,54.66
2018-11-23T01:54:52.084Z,54.77
2018-11-23T01:57:18.997Z,54.67
2018-11-23T01:59:45.906Z,54.67
2018-11-23T02:02:12.862Z,54.48
2018-11-23T02:04:39.744Z,55.27
2018-11-23T02:07:06.813Z,55.17
2018-11-23T02:09:33.729Z,54.84
2018-11-23T02:12:00.617Z,54.75
2018-11-23T02:14:27.502Z,55.18
2018-11-23T02:16:54.519Z,55.60
2018-11-23T02:19:21.493Z,55.04
2018-11-23T02:21:48.380Z,55.20
2018-11-23T02:24:15.246Z,55.41
2018-11-23T02:26:42.121Z,54.82
2018-11-23T02:29:09.052Z,55.32
2018-11-23T02:31:37.408Z,55.18
2018-11-23T02:34:04.314Z,55.18
2018-11-23T02:36:31.182Z,55.30
2018-11-23T02:38:58.025Z,54.59
2018-11-23T02:41:24.884Z,55.41
2018-11-23T02:43:51.777Z,55.07
2018-11-23T02:46:18.786Z,55.18
2018-11-23T02:48:45.723Z,55.22
2018-11-23T02:51:12.565Z,55.25
2018-11-23T02:53:39.469Z,55.46
2018-11-23T02:56:06.309Z,54.49
2018-11-23T02:58:33.242Z,54.60
2018-11-23T03:01:00.182Z,54.85
2018-11-23T03:03:27.148Z,55.28
2018-11-23T03:05:54.058Z,54.72
2018-11-23T03:08:21.143Z,54.81
2018-11-23T03:10:48.087Z,55.25
2018-11-23T03:13:15.027Z,54.53
2018-11-23T03:15:41.931Z,54.95
2018-11-23T03:18:08.874Z,55.32
2018-11-23T03:20:35.798Z,54.85
2018-11-23T03:23:02.750Z,55.30
2018-11-23T03:25:29.649Z,54.51
2018-11-23T03:27:56.573Z,54.97
2018-11-23T03:30:24.122Z,54.30
2018-11-23T03:32:52.031Z,55.25
2018-11-23T03:35:19.438Z,55.22
2018-11-23T03:37:46.693Z,54.96
2018-11-23T03:40:13.601Z,55.33
2018-11-23T03:42:40.502Z,55.16
2018-11-23T03:45:07.430Z,55.17
2018-11-23T03:47:34.391Z,54.63
2018-11-23T03:50:01.359Z,54.98
2018-11-23T03:52:28.273Z,54.77
2018-11-23T03:54:55.185Z,55.41
2018-11-23T03:57:22.147Z,55.03
2018-11-23T03:59:49.068Z,54.48
2018-11-23T04:02:15.998Z,55.17
2018-11-23T04:04:42.936Z,55.27
2018-11-23T04:07:09.870Z,54.68
2018-11-23T04:09:36.764Z,54.69
2018-11-23T04:12:03.719Z,55.20
2018-11-23T04:14:30.743Z,54.66
2018-11-23T04:16:57.688Z,55.30
2018-11-23T04:19:24.888Z,54.72
2018-11-23T04:21:51.790Z,54.89
2018-11-23T04:24:18.746Z,54.85
2018-11-23T04:26:45.690Z,55.04
2018-11-23T04:29:12.647Z,54.63
2018-11-23T04:31:39.570Z,54.45
2018-11-23T04:34:06.508Z,55.35
2018-11-23T04:36:33.502Z,55.26
2018-11-23T04:39:00.467Z,54.54
2018-11-23T04:41:27.365Z,54.53
2018-11-23T04:43:54.281Z,55.18
2018-11-23T04:46:21.231Z,54.80
2018-11-23T04:48:48.203Z,55.27
2018-11-23T04:51:15.186Z,54.59
2018-11-23T04:53:42.105Z,55.16
2018-11-23T04:56:09.050Z,54.80
2018-11-23T04:58:36.015Z,55.16
2018-11-23T05:01:03.121Z,55.14
2018-11-23T05:03:30.106Z,54.61
2018-11-23T05:05:57.058Z,54.30
2018-11-23T05:08:24.027Z,55.12
2018-11-23T05:10:51.051Z,54.62
2018-11-23T05:13:18.373Z,54.61
2018-11-23T05:15:45.360Z,55.04
2018-11-23T05:18:12.287Z,55.04
2018-11-23T05:20:39.230Z,54.45
2018-11-23T05:23:06.264Z,55.53
2018-11-23T05:25:33.227Z,54.53
2018-11-23T05:28:00.213Z,54.64
2018-11-23T05:30:27.138Z,54.87
2018-11-23T05:32:54.193Z,55.15
2018-11-23T05:35:21.098Z,54.51
2018-11-23T05:37:48.032Z,55.09
2018-11-23T05:40:17.133Z,55.06
2018-11-23T05:42:44.105Z,54.53
2018-11-23T05:45:11.962Z,54.73
2018-11-23T05:47:38.883Z,54.49
2018-11-23T05:50:05.832Z,55.08
2018-11-23T05:52:32.750Z,54.77
2018-11-23T05:54:59.688Z,54.55
2018-11-23T05:57:28.654Z,54.40
2018-11-23T05:59:55.602Z,54.84
2018-11-23T06:02:22.667Z,54.66
2018-11-23T06:04:49.750Z,55.11
2018-11-23T06:07:16.681Z,54.57
2018-11-23T06:09:43.631Z,55.11
2018-11-23T06:12:10.648Z,55.17
2018-11-23T06:14:37.561Z,55.18
2018-11-23T06:17:05.060Z,54.48
2018-11-23T06:19:32.097Z,54.60
2018-11-23T06:21:59.158Z,54.39
2018-11-23T06:24:32.008Z,54.45
2018-11-23T06:26:53.059Z,54.35
2018-11-23T06:29:20.061Z,54.54
2018-11-23T06:31:46.967Z,55.19
2018-11-23T06:34:13.897Z,54.70
2018-11-23T06:36:40.906Z,54.54
2018-11-23T06:39:07.851Z,54.52
2018-11-23T06:41:34.763Z,55.11
2018-11-23T06:44:01.710Z,54.96
2018-11-23T06:46:28.675Z,54.48
2018-11-23T06:48:55.598Z,54.35
2018-11-23T06:51:22.549Z,54.31
2018-11-23T06:53:49.503Z,55.20
2018-11-23T06:56:16.493Z,54.54
2018-11-23T06:58:43.470Z,54.35
2018-11-23T07:01:10.416Z,55.12
2018-11-23T07:06:10.595Z,55.21
2018-11-23T07:08:37.539Z,54.67
2018-11-23T07:11:04.605Z,54.77
2018-11-23T07:13:31.806Z,55.16
2018-11-23T07:15:58.775Z,55.12
2018-11-23T07:18:25.697Z,55.19
2018-11-23T07:20:53.799Z,54.94
2018-11-23T07:23:19.605Z,55.35
2018-11-23T07:25:46.740Z,55.28
2018-11-23T07:28:15.675Z,54.64
2018-11-23T07:30:40.644Z,54.59
2018-11-23T07:33:07.611Z,54.60
2018-11-23T07:35:34.574Z,54.61
2018-11-23T07:38:01.495Z,54.71
2018-11-23T07:40:30.245Z,55.25
2018-11-23T07:42:58.715Z,55.43
2018-11-23T07:45:25.690Z,54.92
2018-11-23T07:47:52.633Z,54.76
2018-11-23T07:50:19.578Z,55.19
2018-11-23T07:52:46.521Z,55.07
2018-11-23T07:55:13.780Z,55.43
2018-11-23T07:57:40.958Z,55.41
2018-11-23T08:00:08.615Z,54.87
2018-11-23T08:02:35.567Z,55.16
2018-11-23T08:05:02.498Z,55.23
2018-11-23T08:07:29.422Z,54.84
2018-11-23T08:09:56.382Z,55.19
2018-11-23T08:12:23.320Z,55.40
2018-11-23T08:14:50.220Z,54.80
2018-11-23T08:17:17.214Z,55.06
2018-11-23T08:19:47.411Z,54.68
2018-11-23T08:22:11.410Z,55.01
2018-11-23T08:24:38.467Z,54.59
2018-11-23T08:27:05.461Z,55.32
2018-11-23T08:29:32.395Z,55.35
2018-11-23T08:32:01.352Z,55.13
2018-11-23T08:34:28.267Z,55.13
2018-11-23T08:36:55.221Z,54.82
2018-11-23T08:39:22.323Z,55.33
2018-11-23T08:41:49.326Z,55.17
2018-11-23T08:44:16.467Z,55.44
2018-11-23T08:46:43.393Z,55.33
2018-11-23T08:49:10.314Z,55.26
2018-11-23T08:51:37.239Z,55.46
2018-11-23T08:54:04.173Z,55.43
2018-11-23T08:56:31.110Z,55.19
2018-11-23T08:58:58.081Z,55.08
2018-11-23T09:01:25.324Z,55.52
2018-11-23T09:03:52.437Z,55.56
2018-11-23T09:06:19.476Z,55.48
2018-11-23T09:08:46.379Z,55.58
2018-11-23T09:11:13.318Z,55.53
2018-11-23T09:13:40.272Z,55.25
2018-11-23T09:16:07.586Z,55.02
2018-11-23T09:18:35.570Z,55.25
2018-11-23T09:21:02.482Z,55.18
2018-11-23T09:23:29.402Z,55.56
2018-11-23T09:25:56.312Z,55.65
2018-11-23T09:28:23.254Z,55.60
2018-11-23T09:30:50.209Z,55.50
2018-11-23T09:33:17.225Z,54.77
2018-11-23T09:35:45.173Z,55.26
2018-11-23T09:38:12.112Z,54.85
2018-11-23T09:40:39.079Z,54.98
2018-11-23T09:43:06.083Z,55.51
2018-11-23T09:45:33.618Z,48.09
2018-11-23T09:48:01.983Z,43.71
2018-11-23T09:50:29.214Z,43.87
2018-11-23T09:52:57.492Z,42.78
2018-11-23T09:55:25.059Z,43.86
2018-11-23T09:57:52.189Z,43.83
2018-11-23T10:00:20.484Z,42.84
2018-11-23T10:02:48.213Z,43.87
2018-11-23T10:05:15.829Z,43.69
2018-11-23T10:07:44.102Z,43.91
2018-11-23T10:10:11.935Z,44.17
2018-11-23T10:12:38.825Z,44.42
2018-11-23T10:15:05.731Z,44.56
2018-11-23T10:17:32.618Z,44.67
2018-11-23T10:19:59.519Z,43.95
2018-11-23T10:22:26.440Z,44.12
2018-11-23T10:24:53.358Z,44.07
2018-11-23T10:27:20.297Z,44.56
2018-11-23T10:29:47.214Z,46.18
2018-11-23T10:32:14.103Z,46.05
2018-11-23T10:34:40.999Z,46.45
2018-11-23T10:37:07.894Z,48.09
2018-11-23T10:39:34.793Z,47.85
2018-11-23T10:42:01.695Z,48.10
2018-11-23T10:44:28.608Z,48.20
2018-11-23T10:46:55.527Z,48.36
2018-11-23T10:49:22.430Z,49.36
2018-11-23T10:51:49.302Z,49.23
2018-11-23T10:54:16.195Z,49.86
2018-11-23T10:56:43.091Z,50.13
2018-11-23T10:59:09.974Z,49.61
2018-11-23T11:01:42.240Z,49.78
2018-11-23T11:04:14.330Z,50.22
2018-11-23T11:06:46.592Z,50.50
2018-11-23T11:09:13.495Z,49.95
2018-11-23T11:11:41.219Z,50.79
2018-11-23T11:14:08.481Z,50.37
2018-11-23T11:16:36.185Z,50.26
2018-11-23T11:19:03.078Z,50.64
2018-11-23T11:21:29.979Z,50.30
2018-11-23T11:23:56.874Z,50.38
2018-11-23T11:26:23.775Z,51.08
2018-11-23T11:28:50.703Z,50.51
2018-11-23T11:31:17.662Z,51.29
2018-11-23T11:33:44.579Z,50.46
2018-11-23T11:36:11.478Z,51.19
2018-11-23T11:38:38.383Z,50.90
2018-11-23T11:41:05.275Z,50.84
2018-11-23T11:43:32.171Z,51.36
2018-11-23T11:45:59.062Z,50.78
2018-11-23T11:48:25.965Z,51.52
2018-11-23T11:50:52.904Z,50.87
2018-11-23T11:53:19.820Z,50.90
2018-11-23T11:55:46.706Z,50.97
2018-11-23T11:58:13.599Z,52.16
2018-11-23T12:00:40.517Z,51.28
2018-11-23T12:03:07.419Z,51.79
2018-11-23T12:05:34.315Z,51.63
2018-11-23T12:08:01.218Z,52.13
2018-11-23T12:10:28.122Z,51.99
2018-11-23T12:12:55.045Z,51.50
2018-11-23T12:15:21.945Z,51.66
2018-11-23T12:17:48.825Z,52.47
2018-11-23T12:20:23.454Z,51.70
2018-11-23T12:22:50.715Z,52.57
2018-11-23T12:25:17.891Z,52.01
2018-11-23T12:27:44.797Z,51.91
2018-11-23T12:30:12.290Z,52.84
2018-11-23T12:32:39.315Z,53.54
2018-11-23T12:35:06.198Z,53.74
2018-11-23T12:37:33.491Z,53.89
2018-11-23T12:40:00.418Z,53.96
2018-11-23T12:42:27.311Z,53.50
2018-11-23T12:44:54.252Z,54.33
2018-11-23T12:47:21.159Z,54.91
2018-11-23T12:49:48.072Z,54.87
2018-11-23T12:52:14.957Z,54.40
2018-11-23T12:54:41.870Z,54.31
2018-11-23T12:57:08.753Z,54.14
2018-11-23T12:59:35.703Z,53.96
2018-11-23T13:02:02.606Z,54.07
2018-11-23T13:04:29.562Z,54.33
2018-11-23T13:06:56.482Z,54.85
2018-11-23T13:09:23.426Z,54.80
2018-11-23T13:11:50.392Z,54.84
2018-11-23T13:14:17.308Z,54.59
2018-11-23T13:16:44.274Z,54.98
2018-11-23T13:19:11.180Z,54.47
2018-11-23T13:21:38.066Z,54.43
2018-11-23T13:24:04.993Z,54.67
2018-11-23T13:26:32.132Z,54.60
2018-11-23T13:29:02.800Z,55.10
2018-11-23T13:31:26.065Z,54.31
2018-11-23T13:33:53.686Z,54.50
2018-11-23T13:36:20.588Z,54.74
2018-11-23T13:38:47.470Z,54.48
2018-11-23T13:41:14.363Z,54.98
2018-11-23T13:43:41.261Z,55.10
2018-11-23T13:46:08.154Z,54.56
2018-11-23T13:48:35.049Z,54.95
2018-11-23T13:51:01.939Z,54.50
2018-11-23T13:53:28.821Z,54.51
2018-11-23T13:55:55.746Z,54.74
2018-11-23T13:58:22.647Z,54.82
2018-11-23T14:00:49.546Z,54.49
2018-11-23T14:03:16.525Z,55.13
2018-11-23T14:05:43.422Z,54.54
2018-11-23T14:08:10.309Z,54.54
2018-11-23T14:10:37.220Z,54.55
2018-11-23T14:13:11.019Z,54.54
2018-11-23T14:15:31.635Z,55.00
2018-11-23T14:17:59.386Z,55.00
2018-11-23T14:20:26.979Z,54.97
2018-11-23T14:22:53.965Z,54.29
2018-11-23T14:25:22.207Z,54.91
2018-11-23T14:27:49.543Z,54.31
2018-11-23T14:30:17.623Z,54.36
2018-11-23T14:32:44.638Z,54.32
2018-11-23T14:35:12.971Z,54.22
2018-11-23T14:37:40.213Z,54.21
2018-11-23T14:40:07.433Z,54.92
2018-11-23T14:42:34.322Z,54.81
2018-11-23T14:45:01.214Z,54.28
2018-11-23T14:47:28.119Z,54.49
2018-11-23T14:49:55.025Z,54.22
2018-11-23T14:52:21.928Z,54.98
2018-11-23T14:54:48.835Z,54.99
2018-11-23T14:57:15.751Z,54.97
2018-11-23T14:59:42.656Z,54.03
2018-11-23T15:02:09.641Z,54.95
2018-11-23T15:04:36.538Z,54.91
2018-11-23T15:07:03.447Z,54.58
2018-11-23T15:09:30.334Z,54.46
2018-11-23T15:11:57.239Z,54.63
2018-11-23T15:14:24.126Z,54.12
2018-11-23T15:16:51.066Z,54.09
2018-11-23T15:19:18.066Z,54.63
2018-11-23T15:21:44.962Z,54.46
2018-11-23T15:24:11.854Z,54.84
2018-11-23T15:26:38.753Z,54.16
2018-11-23T15:29:05.638Z,54.66
2018-11-23T15:31:32.570Z,53.91
2018-11-23T15:33:59.471Z,54.27
2018-11-23T15:36:26.482Z,54.15
2018-11-23T15:38:53.389Z,54.29
2018-11-23T15:41:20.277Z,53.86
2018-11-23T15:43:47.188Z,53.88
2018-11-23T15:46:14.094Z,53.85
2018-11-23T15:48:40.991Z,54.54
2018-11-23T15:51:09.257Z,54.58
2018-11-23T15:53:36.155Z,54.50
2018-11-23T15:56:03.053Z,53.96
2018-11-23T15:58:29.952Z,53.92
2018-11-23T16:00:56.855Z,54.45
2018-11-23T16:03:23.759Z,54.16
2018-11-23T16:05:50.656Z,54.54
2018-11-23T16:08:17.563Z,53.91
2018-11-23T16:10:44.472Z,54.44
2018-11-23T16:13:11.984Z,54.29
2018-11-23T16:15:38.953Z,54.17
2018-11-23T16:18:05.884Z,54.40
2018-11-23T16:20:33.736Z,54.06
2018-11-23T16:23:08.566Z,53.79
2018-11-23T16:25:35.494Z,53.87
2018-11-23T16:28:03.667Z,54.14
2018-11-23T16:30:31.946Z,53.91
2018-11-23T16:33:00.123Z,54.44
2018-11-23T16:35:28.300Z,53.79
2018-11-23T16:37:56.154Z,54.46
2018-11-23T16:40:24.538Z,54.11
2018-11-23T16:42:51.802Z,53.89
2018-11-23T16:45:20.943Z,54.38
2018-11-23T16:47:48.355Z,53.81
2018-11-23T16:50:15.327Z,53.63
2018-11-23T16:52:43.267Z,54.21
2018-11-23T16:55:11.536Z,53.61
2018-11-23T16:57:38.697Z,54.21
2018-11-23T17:00:05.642Z,54.10
2018-11-23T17:02:32.558Z,54.21
2018-11-23T17:04:59.446Z,53.69
2018-11-23T17:07:26.342Z,53.80
2018-11-23T17:09:53.247Z,53.94
2018-11-23T17:12:20.137Z,54.39
2018-11-23T17:14:47.050Z,54.08
2018-11-23T17:17:13.934Z,53.86
2018-11-23T17:19:40.839Z,54.21
2018-11-23T17:22:07.823Z,53.61
2018-11-23T17:24:34.714Z,54.41
2018-11-23T17:27:01.620Z,53.62
2018-11-23T17:29:28.523Z,54.18
2018-11-23T17:31:55.447Z,54.09
2018-11-23T17:34:22.342Z,54.07
2018-11-23T17:36:49.236Z,53.70
2018-11-23T17:39:16.131Z,54.09
2018-11-23T17:41:43.017Z,54.27
2018-11-23T17:44:09.897Z,53.79
2018-11-23T17:46:36.794Z,53.48
2018-11-23T17:49:03.719Z,54.23
2018-11-23T17:51:30.606Z,54.20
2018-11-23T17:53:57.490Z,53.49
2018-11-23T17:56:24.396Z,53.67
2018-11-23T17:58:51.299Z,54.22
2018-11-23T18:01:18.190Z,54.22
2018-11-23T18:03:45.082Z,53.82
2018-11-23T18:06:11.998Z,54.02
2018-11-23T18:08:39.145Z,53.55
2018-11-23T18:11:05.851Z,53.68
2018-11-23T18:13:32.741Z,53.41
2018-11-23T18:15:59.665Z,53.47
2018-11-23T18:18:26.562Z,53.48
2018-11-23T18:20:53.451Z,54.06
2018-11-23T18:23:20.351Z,54.06
2018-11-23T18:25:47.239Z,54.25
2018-11-23T18:28:14.128Z,54.18
2018-11-23T18:30:41.035Z,54.10
2018-11-23T18:33:07.922Z,53.62
2018-11-23T18:35:34.812Z,54.06
2018-11-23T18:38:01.704Z,53.45
2018-11-23T18:40:32.265Z,53.99
2018-11-23T18:42:55.628Z,53.49
2018-11-23T18:45:22.559Z,53.72
2018-11-23T18:47:49.439Z,53.40
2018-11-23T18:50:16.347Z,54.12
2018-11-23T18:52:43.228Z,54.23
2018-11-23T18:55:13.617Z,54.10
2018-11-23T18:57:37.073Z,53.87
2018-11-23T19:00:03.965Z,53.65
2018-11-23T19:02:30.867Z,53.97
2018-11-23T19:04:57.793Z,54.01
2018-11-23T19:07:24.686Z,53.99
2018-11-23T19:09:51.595Z,53.84
2018-11-23T19:12:18.491Z,53.29
2018-11-23T19:14:45.483Z,53.36
2018-11-23T19:17:12.377Z,54.15
2018-11-23T19:19:39.270Z,53.57
2018-11-23T19:22:06.179Z,53.89
2018-11-23T19:24:33.074Z,53.39
2018-11-23T19:26:59.972Z,53.41
2018-11-23T19:29:26.871Z,53.20
2018-11-23T19:31:53.766Z,53.56
2018-11-23T19:34:20.655Z,54.13
2018-11-23T19:36:47.554Z,53.86
2018-11-23T19:39:14.446Z,53.58
2018-11-23T19:41:41.367Z,54.02
2018-11-23T19:44:08.897Z,54.04
2018-11-23T19:46:35.201Z,53.58
2018-11-23T19:49:02.099Z,54.00
2018-11-23T19:51:28.988Z,53.74
2018-11-23T19:53:55.892Z,53.68
2018-11-23T19:56:22.789Z,53.85
2018-11-23T19:58:49.705Z,54.04
2018-11-23T20:01:16.606Z,53.82
2018-11-23T20:03:43.546Z,53.82
2018-11-23T20:06:10.438Z,53.10
2018-11-23T20:08:37.335Z,53.92
2018-11-23T20:11:04.227Z,53.72
2018-11-23T20:13:31.134Z,53.96
2018-11-23T20:15:58.020Z,53.28
2018-11-23T20:18:24.908Z,53.60
2018-11-23T20:20:51.813Z,53.92
2018-11-23T20:23:18.804Z,53.80
2018-11-23T20:25:45.688Z,53.50
2018-11-23T20:28:12.584Z,53.76
2018-11-23T20:30:42.506Z,53.85
2018-11-23T20:33:06.417Z,53.22
2018-11-23T20:35:33.299Z,53.38
2018-11-23T20:38:00.197Z,53.30
2018-11-23T20:40:27.094Z,53.34
2018-11-23T20:42:54.850Z,53.42
2018-11-23T20:45:21.744Z,53.83
2018-11-23T20:47:48.643Z,53.04
2018-11-23T20:50:15.538Z,53.04
2018-11-23T20:52:42.425Z,53.93
2018-11-23T20:55:09.316Z,53.31
2018-11-23T20:57:36.219Z,53.78
2018-11-23T21:00:03.123Z,53.03
2018-11-23T21:02:30.110Z,53.19
2018-11-23T21:04:57.006Z,53.29
2018-11-23T21:07:23.899Z,53.78
2018-11-23T21:09:50.794Z,53.28
2018-11-23T21:12:17.778Z,53.69
2018-11-23T21:14:44.698Z,53.25
2018-11-23T21:17:11.598Z,53.79
2018-11-23T21:19:38.499Z,53.05
2018-11-23T21:22:05.413Z,53.07
2018-11-23T21:24:32.295Z,53.70
2018-11-23T21:26:59.195Z,53.07
2018-11-23T21:29:26.090Z,53.34
2018-11-23T21:31:52.978Z,52.99
2018-11-23T21:34:19.899Z,53.34
2018-11-23T21:36:46.806Z,53.28
2018-11-23T21:39:13.976Z,53.21
2018-11-23T21:41:40.635Z,53.01
2018-11-23T21:44:07.544Z,53.10
2018-11-23T21:46:34.452Z,53.41
2018-11-23T21:49:01.370Z,53.78
2018-11-23T21:51:28.252Z,53.02
2018-11-23T21:53:55.145Z,53.74
2018-11-23T21:56:22.048Z,52.83
2018-11-23T21:58:48.974Z,53.86
2018-11-23T22:01:15.861Z,53.08
2018-11-23T22:03:42.751Z,53.83
2018-11-23T22:06:09.655Z,53.42
2018-11-23T22:08:36.567Z,53.88
2018-11-23T22:11:03.454Z,53.64
2018-11-23T22:13:30.346Z,53.15
2018-11-23T22:15:57.241Z,53.10
2018-11-23T22:18:24.134Z,53.13
2018-11-23T22:20:51.042Z,53.83
2018-11-23T22:23:17.949Z,52.91
2018-11-23T22:25:44.870Z,53.57
2018-11-23T22:28:11.766Z,53.16
2018-11-23T22:30:38.678Z,53.15
2018-11-23T22:33:05.603Z,52.98
2018-11-23T22:35:32.507Z,53.23
2018-11-23T22:37:59.427Z,53.41
2018-11-23T22:40:26.324Z,53.72
2018-11-23T22:42:53.430Z,53.63
2018-11-23T22:45:20.339Z,53.84
2018-11-23T22:47:47.238Z,53.56
2018-11-23T22:50:14.135Z,52.84
2018-11-23T22:52:41.043Z,53.07
2018-11-23T22:55:07.939Z,52.79
2018-11-23T22:57:34.855Z,53.20
2018-11-23T23:00:01.761Z,53.03
2018-11-23T23:02:28.655Z,53.13
2018-11-23T23:04:55.553Z,53.13
2018-11-23T23:07:22.455Z,53.29
2018-11-23T23:09:49.361Z,53.07
2018-11-23T23:12:16.267Z,53.01
2018-11-23T23:14:43.186Z,53.61
2018-11-23T23:17:10.082Z,53.06
2018-11-23T23:19:36.989Z,53.48
2018-11-23T23:22:03.892Z,52.84
2018-11-23T23:24:30.803Z,52.79
2018-11-23T23:26:57.700Z,53.32
2018-11-23T23:29:24.634Z,53.50
2018-11-23T23:31:51.556Z,53.00
2018-11-23T23:34:18.449Z,53.71
2018-11-23T23:36:45.358Z,53.08
2018-11-23T23:39:12.267Z,53.42
2018-11-23T23:41:39.155Z,53.44
2018-11-23T23:44:06.056Z,53.70
2018-11-23T23:46:32.943Z,53.74
2018-11-23T23:48:59.824Z,52.90
2018-11-23T23:51:26.718Z,53.04
2018-11-23T23:53:53.624Z,53.61
2018-11-23T23:56:20.529Z,52.87
2018-11-23T23:58:47.418Z,52.97
